createdAt,value
2018-01-17T00:00:35.220Z,0.00
2018-01-17T00:01:41.140Z,0.00
2018-01-17T00:02:47.168Z,0.00
2018-01-17T00:03:53.216Z,0.00
2018-01-17T00:04:59.230Z,0.00
2018-01-17T00:06:05.203Z,0.00
2018-01-17T00:07:11.244Z,0.00
2018-01-17T00:08:17.262Z,0.00
2018-01-17T00:09:23.295Z,0.00
2018-01-17T00:10:29.326Z,0.00
2018-01-17T00:11:35.327Z,0.00
2018-01-17T00:12:41.354Z,0.00
2018-01-17T00:13:47.403Z,0.00
2018-01-17T00:14:53.475Z,0.00
2018-01-17T00:15:59.493Z,0.00
2018-01-17T00:17:05.437Z,0.00
2018-01-17T00:18:11.506Z,0.00
2018-01-17T00:19:17.518Z,0.00
2018-01-17T00:20:23.580Z,0.00
2018-01-17T00:21:29.539Z,0.00
2018-01-17T00:22:35.605Z,0.00
2018-01-17T00:23:41.629Z,0.00
2018-01-17T00:24:47.636Z,0.00
2018-01-17T00:25:53.720Z,0.00
2018-01-17T00:26:59.693Z,0.00
2018-01-17T00:28:05.736Z,0.00
2018-01-17T00:29:11.785Z,0.00
2018-01-17T00:30:17.813Z,0.00
2018-01-17T00:31:23.892Z,0.00
2018-01-17T00:32:29.877Z,0.00
2018-01-17T00:33:35.866Z,0.00
2018-01-17T00:34:41.909Z,0.00
2018-01-17T00:35:47.970Z,0.00
2018-01-17T00:36:54.001Z,0.00
2018-01-17T00:38:00.061Z,0.00
2018-01-17T00:39:06.044Z,0.00
2018-01-17T00:40:12.142Z,0.00
2018-01-17T00:41:18.171Z,0.00
2018-01-17T00:42:24.270Z,0.00
2018-01-17T00:43:30.216Z,0.00
2018-01-17T00:44:36.247Z,0.00
2018-01-17T00:45:42.312Z,0.00
2018-01-17T00:46:48.408Z,0.00
2018-01-17T00:47:54.396Z,0.00
2018-01-17T00:49:00.457Z,0.00
2018-01-17T00:50:06.501Z,0.00
2018-01-17T00:51:13.574Z,0.00
2018-01-17T00:52:18.561Z,0.00
2018-01-17T00:53:24.646Z,0.00
2018-01-17T00:54:30.682Z,0.00
2018-01-17T00:55:36.691Z,0.00
2018-01-17T00:56:42.754Z,0.00
2018-01-17T00:57:48.768Z,0.00
2018-01-17T00:58:54.872Z,0.00
2018-01-17T01:00:00.848Z,0.00
2018-01-17T01:01:06.916Z,0.00
2018-01-17T01:02:12.974Z,0.00
2018-01-17T01:03:19.012Z,0.00
2018-01-17T01:04:25.183Z,0.00
2018-01-17T01:05:31.145Z,0.00
2018-01-17T01:06:37.150Z,0.00
2018-01-17T01:07:43.218Z,0.00
2018-01-17T01:08:49.257Z,0.00
2018-01-17T01:09:55.362Z,0.00
2018-01-17T01:11:01.327Z,0.00
2018-01-17T01:12:07.430Z,0.00
2018-01-17T01:13:13.497Z,0.00
2018-01-17T01:14:19.521Z,0.00
2018-01-17T01:15:25.590Z,0.00
2018-01-17T01:16:31.604Z,0.00
2018-01-17T01:17:37.676Z,0.00
2018-01-17T01:18:43.689Z,0.00
2018-01-17T01:19:49.742Z,0.00
2018-01-17T01:20:55.837Z,0.00
2018-01-17T01:22:01.879Z,0.00
2018-01-17T01:23:08.050Z,0.00
2018-01-17T01:25:20.021Z,0.00
2018-01-17T01:26:25.601Z,0.00
2018-01-17T01:27:32.161Z,0.00
2018-01-17T01:28:38.169Z,0.00
2018-01-17T01:29:44.261Z,0.00
2018-01-17T01:30:50.260Z,0.00
2018-01-17T01:31:56.324Z,0.00
2018-01-17T01:33:01.900Z,0.00
2018-01-17T01:34:08.458Z,0.00
2018-01-17T01:36:20.489Z,0.00
2018-01-17T01:37:26.530Z,0.00
2018-01-17T01:38:32.666Z,0.00
2018-01-17T01:39:38.626Z,0.00
2018-01-17T01:40:44.703Z,0.00
2018-01-17T01:41:50.755Z,0.00
2018-01-17T01:42:56.769Z,0.00
2018-01-17T01:44:02.841Z,0.00
2018-01-17T01:45:08.906Z,0.00
2018-01-17T01:46:14.912Z,0.00
2018-01-17T01:47:21.027Z,0.00
2018-01-17T01:48:27.071Z,0.00
2018-01-17T01:49:33.185Z,0.00
2018-01-17T01:50:39.152Z,0.00
2018-01-17T01:51:45.155Z,0.00
2018-01-17T01:52:51.221Z,0.00
2018-01-17T01:53:57.338Z,0.00
2018-01-17T01:55:03.282Z,0.00
2018-01-17T01:56:09.365Z,0.00
2018-01-17T01:57:15.456Z,0.00
2018-01-17T01:58:21.423Z,0.00
2018-01-17T01:59:27.482Z,0.00
2018-01-17T02:00:33.544Z,0.00
2018-01-17T02:01:39.630Z,0.00
2018-01-17T02:02:45.619Z,0.00
2018-01-17T02:03:51.696Z,0.00
2018-01-17T02:04:57.710Z,0.00
2018-01-17T02:06:03.746Z,0.00
2018-01-17T02:07:09.816Z,0.00
2018-01-17T02:08:15.873Z,0.00
2018-01-17T02:09:21.933Z,0.00
2018-01-17T02:10:27.973Z,0.00
2018-01-17T02:11:34.047Z,0.00
2018-01-17T02:12:40.050Z,0.00
2018-01-17T02:13:46.112Z,0.00
2018-01-17T02:14:52.160Z,0.00
2018-01-17T02:15:58.185Z,0.00
2018-01-17T02:17:04.249Z,0.00
2018-01-17T02:18:10.340Z,0.00
2018-01-17T02:19:16.379Z,0.00
2018-01-17T02:20:22.393Z,0.00
2018-01-17T02:21:28.478Z,0.00
2018-01-17T02:22:34.527Z,0.00
2018-01-17T02:23:40.578Z,0.00
2018-01-17T02:24:46.650Z,0.00
2018-01-17T02:25:52.669Z,0.00
2018-01-17T02:26:58.721Z,0.00
2018-01-17T02:28:04.750Z,0.00
2018-01-17T02:29:10.803Z,0.00
2018-01-17T02:30:16.879Z,0.00
2018-01-17T02:31:23.007Z,0.00
2018-01-17T02:32:28.966Z,0.00
2018-01-17T02:33:35.005Z,0.00
2018-01-17T02:34:41.174Z,0.00
2018-01-17T02:35:47.169Z,0.00
2018-01-17T02:36:53.162Z,0.00
2018-01-17T02:37:59.206Z,0.00
2018-01-17T02:39:05.302Z,0.00
2018-01-17T02:40:11.783Z,0.00
2018-01-17T02:41:17.351Z,0.00
2018-01-17T02:42:24.424Z,0.00
2018-01-17T02:43:29.436Z,0.00
2018-01-17T02:44:35.486Z,0.00
2018-01-17T02:45:41.497Z,0.00
2018-01-17T02:46:47.556Z,0.00
2018-01-17T02:47:53.641Z,0.00
2018-01-17T02:48:59.679Z,0.00
2018-01-17T02:50:05.718Z,0.00
2018-01-17T02:51:11.758Z,0.00
2018-01-17T02:52:17.783Z,0.00
2018-01-17T02:53:23.822Z,0.00
2018-01-17T02:54:30.056Z,0.00
2018-01-17T02:55:35.900Z,0.00
2018-01-17T02:56:42.951Z,0.00
2018-01-17T02:57:48.027Z,0.00
2018-01-17T02:58:54.083Z,0.00
2018-01-17T03:00:00.213Z,0.00
2018-01-17T03:01:06.156Z,0.00
2018-01-17T03:02:12.247Z,0.00
2018-01-17T03:03:18.267Z,0.00
2018-01-17T03:04:24.296Z,0.00
2018-01-17T03:05:30.385Z,0.00
2018-01-17T03:06:36.529Z,0.00
2018-01-17T03:07:42.432Z,0.00
2018-01-17T03:08:48.495Z,0.00
2018-01-17T03:09:54.558Z,0.00
2018-01-17T03:11:00.610Z,0.00
2018-01-17T03:12:06.623Z,0.00
2018-01-17T03:13:12.679Z,0.00
2018-01-17T03:14:18.729Z,0.00
2018-01-17T03:15:24.818Z,0.00
2018-01-17T03:16:31.826Z,0.00
2018-01-17T03:17:37.880Z,0.00
2018-01-17T03:18:43.930Z,0.00
2018-01-17T03:19:48.997Z,0.00
2018-01-17T03:20:55.170Z,0.00
2018-01-17T03:22:01.186Z,0.00
2018-01-17T03:23:07.144Z,0.00
2018-01-17T03:24:13.216Z,0.00
2018-01-17T03:25:19.312Z,0.00
2018-01-17T03:26:25.347Z,0.00
2018-01-17T03:27:31.348Z,0.00
2018-01-17T03:28:37.413Z,0.00
2018-01-17T03:29:43.499Z,0.00
2018-01-17T03:30:49.532Z,0.00
2018-01-17T03:31:55.536Z,0.00
2018-01-17T03:33:01.603Z,0.00
2018-01-17T03:34:07.735Z,0.00
2018-01-17T03:35:13.692Z,0.00
2018-01-17T03:36:19.803Z,0.00
2018-01-17T03:37:25.826Z,0.00
2018-01-17T03:38:31.839Z,0.00
2018-01-17T03:39:37.893Z,0.00
2018-01-17T03:40:43.940Z,0.00
2018-01-17T03:41:50.030Z,0.00
2018-01-17T03:42:56.036Z,0.00
2018-01-17T03:44:02.083Z,0.00
2018-01-17T03:45:08.189Z,0.00
2018-01-17T03:46:14.226Z,0.00
2018-01-17T03:47:20.219Z,0.00
2018-01-17T03:48:26.322Z,0.00
2018-01-17T03:49:32.330Z,0.00
2018-01-17T03:50:38.377Z,0.00
2018-01-17T03:51:44.474Z,0.00
2018-01-17T03:52:50.461Z,0.00
2018-01-17T03:53:56.528Z,0.00
2018-01-17T03:55:02.571Z,0.00
2018-01-17T03:56:08.623Z,0.00
2018-01-17T03:57:14.748Z,0.00
2018-01-17T03:58:20.684Z,0.00
2018-01-17T03:59:26.821Z,0.00
2018-01-17T04:00:32.801Z,0.00
2018-01-17T04:01:38.911Z,0.00
2018-01-17T04:02:44.924Z,0.00
2018-01-17T04:03:50.966Z,0.00
2018-01-17T04:04:57.515Z,0.00
2018-01-17T04:06:04.040Z,0.00
2018-01-17T04:07:09.168Z,0.00
2018-01-17T04:08:16.136Z,0.00
2018-01-17T04:09:22.190Z,0.00
2018-01-17T04:10:27.215Z,0.00
2018-01-17T04:11:34.274Z,0.00
2018-01-17T04:12:39.404Z,0.00
2018-01-17T04:13:45.390Z,0.00
2018-01-17T04:14:51.412Z,0.00
2018-01-17T04:15:57.521Z,0.00
2018-01-17T04:17:04.550Z,0.00
2018-01-17T04:18:10.580Z,0.00
2018-01-17T04:19:15.747Z,0.00
2018-01-17T04:20:21.695Z,0.00
2018-01-17T04:21:28.711Z,0.00
2018-01-17T04:22:33.784Z,0.00
2018-01-17T04:23:39.834Z,0.00
2018-01-17T04:24:45.889Z,0.00
2018-01-17T04:25:51.972Z,0.00
2018-01-17T04:26:57.964Z,0.00
2018-01-17T04:28:04.024Z,0.00
2018-01-17T04:29:10.077Z,0.00
2018-01-17T04:30:16.138Z,0.00
2018-01-17T04:31:22.176Z,0.00
2018-01-17T04:32:28.226Z,0.00
2018-01-17T04:33:34.236Z,0.00
2018-01-17T04:34:40.285Z,0.00
2018-01-17T04:35:46.356Z,0.00
2018-01-17T04:36:52.416Z,0.00
2018-01-17T04:37:58.450Z,0.00
2018-01-17T04:39:04.479Z,0.00
2018-01-17T04:40:10.535Z,0.00
2018-01-17T04:41:16.571Z,0.00
2018-01-17T04:42:22.606Z,0.00
2018-01-17T04:43:28.649Z,0.00
2018-01-17T04:44:34.702Z,0.00
2018-01-17T04:45:40.796Z,0.00
2018-01-17T04:46:46.778Z,0.00
2018-01-17T04:47:52.870Z,0.00
2018-01-17T04:48:58.876Z,0.00
2018-01-17T04:50:04.928Z,0.00
2018-01-17T04:51:10.977Z,0.00
2018-01-17T04:52:17.129Z,0.00
2018-01-17T04:53:23.133Z,0.00
2018-01-17T04:54:29.136Z,0.00
2018-01-17T04:55:35.205Z,0.00
2018-01-17T04:56:41.218Z,0.00
2018-01-17T04:57:47.291Z,0.00
2018-01-17T04:58:54.336Z,0.00
2018-01-17T05:00:00.327Z,0.00
2018-01-17T05:01:05.376Z,0.00
2018-01-17T05:02:11.455Z,0.00
2018-01-17T05:03:17.515Z,0.00
2018-01-17T05:04:23.525Z,0.00
2018-01-17T05:05:29.639Z,0.00
2018-01-17T05:06:35.599Z,0.00
2018-01-17T05:07:41.666Z,0.00
2018-01-17T05:08:47.742Z,0.00
2018-01-17T05:09:53.750Z,0.00
2018-01-17T05:10:59.830Z,0.00
2018-01-17T05:12:05.866Z,0.00
2018-01-17T05:13:11.922Z,0.00
2018-01-17T05:14:17.946Z,0.00
2018-01-17T05:15:24.023Z,0.00
2018-01-17T05:16:30.025Z,0.00
2018-01-17T05:17:36.118Z,0.00
2018-01-17T05:18:42.171Z,0.00
2018-01-17T05:19:48.169Z,0.00
2018-01-17T05:20:54.282Z,0.00
2018-01-17T05:22:00.267Z,0.00
2018-01-17T05:23:06.330Z,0.00
2018-01-17T05:24:12.353Z,0.00
2018-01-17T05:25:18.400Z,0.00
2018-01-17T05:26:24.449Z,0.00
2018-01-17T05:27:30.518Z,0.00
2018-01-17T05:28:36.619Z,0.00
2018-01-17T05:29:42.639Z,0.00
2018-01-17T05:30:48.698Z,0.00
2018-01-17T05:31:54.665Z,0.00
2018-01-17T05:33:00.746Z,0.00
2018-01-17T05:34:06.774Z,0.00
2018-01-17T05:35:12.832Z,0.00
2018-01-17T05:37:24.990Z,0.00
2018-01-17T05:38:30.438Z,0.00
2018-01-17T05:39:37.067Z,0.00
2018-01-17T05:40:43.232Z,0.00
2018-01-17T05:41:49.159Z,0.00
2018-01-17T05:42:55.144Z,0.00
2018-01-17T05:44:01.289Z,0.00
2018-01-17T05:45:07.270Z,0.00
2018-01-17T05:46:13.309Z,0.00
2018-01-17T05:47:19.335Z,0.00
2018-01-17T05:48:25.389Z,0.00
2018-01-17T05:49:31.515Z,0.00
2018-01-17T05:50:37.477Z,0.00
2018-01-17T05:51:43.568Z,0.00
2018-01-17T05:52:49.641Z,0.00
2018-01-17T05:53:55.716Z,0.00
2018-01-17T05:55:01.747Z,0.00
2018-01-17T05:56:07.765Z,0.00
2018-01-17T05:57:13.832Z,0.00
2018-01-17T05:58:19.866Z,0.00
2018-01-17T05:59:25.968Z,0.00
2018-01-17T06:00:31.996Z,0.00
2018-01-17T06:01:38.125Z,0.00
2018-01-17T06:02:44.080Z,0.00
2018-01-17T06:03:50.135Z,0.00
2018-01-17T06:04:56.256Z,0.00
2018-01-17T06:06:02.239Z,0.00
2018-01-17T06:07:08.331Z,0.00
2018-01-17T06:08:14.384Z,0.00
2018-01-17T06:09:20.327Z,0.00
2018-01-17T06:10:26.450Z,0.00
2018-01-17T06:11:32.422Z,0.00
2018-01-17T06:12:38.490Z,0.00
2018-01-17T06:14:50.630Z,0.00
2018-01-17T06:15:56.147Z,0.00
2018-01-17T06:17:02.687Z,0.00
2018-01-17T06:18:08.707Z,0.00
2018-01-17T06:19:14.744Z,0.00
2018-01-17T06:20:20.909Z,0.00
2018-01-17T06:21:26.834Z,0.00
2018-01-17T06:22:32.894Z,0.00
2018-01-17T06:23:38.985Z,0.00
2018-01-17T06:24:44.992Z,0.00
2018-01-17T06:26:57.138Z,0.00
2018-01-17T06:28:03.127Z,0.00
2018-01-17T06:29:09.148Z,0.00
2018-01-17T06:30:15.304Z,0.00
2018-01-17T06:31:21.242Z,0.00
2018-01-17T06:32:27.393Z,0.00
2018-01-17T06:33:33.329Z,0.00
2018-01-17T06:34:39.303Z,0.00
2018-01-17T06:35:45.388Z,0.00
2018-01-17T06:36:51.442Z,0.00
2018-01-17T06:37:57.562Z,0.00
2018-01-17T06:39:03.611Z,0.00
2018-01-17T06:40:09.641Z,0.00
2018-01-17T06:41:15.655Z,0.00
2018-01-17T06:42:21.617Z,0.00
2018-01-17T06:43:27.686Z,0.00
2018-01-17T06:44:33.740Z,4.00
2018-01-17T06:45:39.769Z,4.00
2018-01-17T06:46:45.803Z,0.00
2018-01-17T06:47:51.907Z,4.00
2018-01-17T06:48:57.923Z,4.00
2018-01-17T06:50:03.915Z,4.00
2018-01-17T06:51:09.988Z,4.00
2018-01-17T06:52:16.045Z,4.00
2018-01-17T06:53:22.098Z,8.00
2018-01-17T06:54:28.121Z,8.00
2018-01-17T06:55:34.254Z,4.00
2018-01-17T06:56:40.248Z,4.00
2018-01-17T06:57:46.289Z,4.00
2018-01-17T06:58:52.371Z,4.00
2018-01-17T06:59:58.408Z,4.00
2018-01-17T07:01:04.516Z,4.00
2018-01-17T07:02:10.533Z,8.00
2018-01-17T07:03:16.537Z,8.00
2018-01-17T07:04:22.603Z,4.00
2018-01-17T07:05:28.712Z,8.00
2018-01-17T07:06:34.680Z,8.00
2018-01-17T07:07:40.235Z,8.00
2018-01-17T07:08:46.766Z,8.00
2018-01-17T07:09:52.800Z,8.00
2018-01-17T07:10:58.852Z,8.00
2018-01-17T07:12:04.924Z,12.00
2018-01-17T07:13:10.440Z,20.00
2018-01-17T07:14:16.474Z,24.00
2018-01-17T07:15:23.514Z,36.00
2018-01-17T07:16:28.568Z,48.00
2018-01-17T07:17:34.589Z,68.00
2018-01-17T07:18:40.636Z,84.00
2018-01-17T07:19:47.198Z,112.00
2018-01-17T07:20:52.705Z,152.00
2018-01-17T07:21:58.751Z,200.00
2018-01-17T07:23:04.774Z,220.00
2018-01-17T07:24:10.809Z,224.00
2018-01-17T07:25:16.859Z,216.00
2018-01-17T07:26:22.881Z,208.00
2018-01-17T07:27:29.007Z,176.00
2018-01-17T07:28:34.946Z,136.00
2018-01-17T07:29:41.485Z,152.00
2018-01-17T07:30:47.022Z,172.00
2018-01-17T07:31:53.077Z,196.00
2018-01-17T07:32:59.579Z,212.00
2018-01-17T07:34:05.121Z,256.00
2018-01-17T07:35:11.166Z,344.00
2018-01-17T07:36:17.687Z,424.00
2018-01-17T07:37:23.245Z,488.00
2018-01-17T07:38:29.284Z,504.00
2018-01-17T07:39:35.283Z,540.00
2018-01-17T07:40:41.324Z,624.00
2018-01-17T07:41:47.358Z,676.00
2018-01-17T07:42:53.422Z,692.00
2018-01-17T07:43:59.415Z,764.00
2018-01-17T07:45:05.436Z,804.00
2018-01-17T07:46:11.481Z,844.00
2018-01-17T07:47:18.538Z,864.00
2018-01-17T07:48:23.545Z,856.00
2018-01-17T07:49:29.564Z,872.00
2018-01-17T07:50:35.592Z,888.00
2018-01-17T07:51:41.640Z,904.00
2018-01-17T07:52:47.673Z,920.00
2018-01-17T07:53:53.690Z,928.00
2018-01-17T07:54:59.732Z,932.00
2018-01-17T07:56:05.751Z,956.00
2018-01-17T07:57:11.794Z,1000.00
2018-01-17T07:58:17.838Z,1044.00
2018-01-17T07:59:23.852Z,1056.00
2018-01-17T08:00:29.891Z,1056.00
2018-01-17T08:01:35.904Z,1072.00
2018-01-17T08:02:41.955Z,1108.00
2018-01-17T08:03:48.457Z,1168.00
2018-01-17T08:04:53.999Z,1216.00
2018-01-17T08:06:00.023Z,1244.00
2018-01-17T08:07:06.069Z,1288.00
2018-01-17T08:08:12.109Z,1348.00
2018-01-17T08:09:18.606Z,1428.00
2018-01-17T08:10:24.170Z,1516.00
2018-01-17T08:11:30.179Z,1596.00
2018-01-17T08:12:36.227Z,1672.00
2018-01-17T08:13:42.277Z,1748.00
2018-01-17T08:14:48.303Z,1812.00
2018-01-17T08:15:54.321Z,1880.00
2018-01-17T08:17:00.373Z,1964.00
2018-01-17T08:18:06.424Z,2028.00
2018-01-17T08:19:12.407Z,2076.00
2018-01-17T08:20:18.444Z,2104.00
2018-01-17T08:21:24.573Z,2128.00
2018-01-17T08:22:30.721Z,2136.00
2018-01-17T08:23:36.580Z,2164.00
2018-01-17T08:24:42.595Z,2200.00
2018-01-17T08:25:48.620Z,2236.00
2018-01-17T08:26:54.669Z,2276.00
2018-01-17T08:28:00.693Z,2320.00
2018-01-17T08:29:06.767Z,2376.00
2018-01-17T08:30:12.782Z,2408.00
2018-01-17T08:31:19.318Z,2432.00
2018-01-17T08:32:24.839Z,2432.00
2018-01-17T08:33:31.401Z,2408.00
2018-01-17T08:34:36.913Z,2372.00
2018-01-17T08:35:43.452Z,2352.00
2018-01-17T08:36:49.490Z,2344.00
2018-01-17T08:37:55.146Z,2328.00
2018-01-17T08:39:01.588Z,2308.00
2018-01-17T08:40:07.117Z,2304.00
2018-01-17T08:41:13.156Z,2300.00
2018-01-17T08:42:19.715Z,2292.00
2018-01-17T08:43:25.710Z,2252.00
2018-01-17T08:44:31.773Z,2176.00
2018-01-17T08:45:37.801Z,2116.00
2018-01-17T08:46:43.883Z,2080.00
2018-01-17T08:47:49.893Z,2060.00
2018-01-17T08:48:55.924Z,2072.00
2018-01-17T08:50:01.474Z,2144.00
2018-01-17T08:51:07.980Z,2148.00
2018-01-17T08:52:13.529Z,2228.00
2018-01-17T08:53:20.056Z,2320.00
2018-01-17T08:54:26.168Z,2504.00
2018-01-17T08:55:32.256Z,2672.00
2018-01-17T08:56:37.695Z,2848.00
2018-01-17T08:57:44.240Z,2828.00
2018-01-17T08:58:50.259Z,2440.00
2018-01-17T08:59:55.829Z,2164.00
2018-01-17T09:01:02.372Z,2208.00
2018-01-17T09:02:07.907Z,2948.00
2018-01-17T09:03:14.420Z,3796.00
2018-01-17T09:04:20.534Z,3796.00
2018-01-17T09:05:26.520Z,2524.00
2018-01-17T09:06:32.574Z,1696.00
2018-01-17T09:07:38.681Z,1516.00
2018-01-17T09:08:44.655Z,1320.00
2018-01-17T09:09:50.799Z,1080.00
2018-01-17T09:10:56.864Z,896.00
2018-01-17T09:12:02.817Z,656.00
2018-01-17T09:13:08.857Z,504.00
2018-01-17T09:14:14.871Z,496.00
2018-01-17T09:15:20.919Z,464.00
2018-01-17T09:16:26.447Z,492.00
2018-01-17T09:17:32.484Z,520.00
2018-01-17T09:18:39.003Z,544.00
2018-01-17T09:19:45.077Z,552.00
2018-01-17T09:20:50.575Z,544.00
2018-01-17T09:21:56.601Z,492.00
2018-01-17T09:23:02.683Z,424.00
2018-01-17T09:24:09.140Z,396.00
2018-01-17T09:26:21.211Z,488.00
2018-01-17T09:27:26.743Z,560.00
2018-01-17T09:28:33.264Z,684.00
2018-01-17T09:29:38.821Z,880.00
2018-01-17T09:30:45.311Z,1128.00
2018-01-17T09:31:50.847Z,1400.00
2018-01-17T09:32:56.873Z,1548.00
2018-01-17T09:34:02.930Z,1584.00
2018-01-17T09:35:08.965Z,1532.00
2018-01-17T09:36:14.955Z,1564.00
2018-01-17T09:37:21.015Z,1572.00
2018-01-17T09:38:27.025Z,1600.00
2018-01-17T09:39:33.061Z,1468.00
2018-01-17T09:40:39.110Z,1236.00
2018-01-17T09:41:45.137Z,1380.00
2018-01-17T09:42:51.146Z,1484.00
2018-01-17T09:43:57.200Z,1440.00
2018-01-17T09:45:03.207Z,1368.00
2018-01-17T09:46:09.260Z,1324.00
2018-01-17T09:47:15.755Z,1292.00
2018-01-17T09:48:21.313Z,1240.00
2018-01-17T09:49:27.329Z,1196.00
2018-01-17T09:50:33.403Z,1120.00
2018-01-17T09:51:39.389Z,1076.00
2018-01-17T09:52:45.421Z,1048.00
2018-01-17T09:53:51.472Z,1036.00
2018-01-17T09:54:57.474Z,1048.00
2018-01-17T09:56:03.552Z,1092.00
2018-01-17T09:57:09.537Z,1176.00
2018-01-17T09:58:15.559Z,1412.00
2018-01-17T09:59:21.608Z,1544.00
2018-01-17T10:00:27.613Z,1848.00
2018-01-17T10:01:33.663Z,2456.00
2018-01-17T10:02:39.684Z,1816.00
2018-01-17T10:03:45.704Z,1672.00
2018-01-17T10:04:51.731Z,1764.00
2018-01-17T10:05:57.786Z,1648.00
2018-01-17T10:07:03.799Z,1616.00
2018-01-17T10:08:09.833Z,1532.00
2018-01-17T10:09:15.861Z,1696.00
2018-01-17T10:10:21.892Z,1504.00
2018-01-17T10:11:27.942Z,1380.00
2018-01-17T10:12:33.957Z,1544.00
2018-01-17T10:13:39.981Z,1612.00
2018-01-17T10:14:46.121Z,1740.00
2018-01-17T10:15:52.158Z,2148.00
2018-01-17T10:16:58.582Z,2024.00
2018-01-17T10:18:04.151Z,2004.00
2018-01-17T10:19:10.646Z,2388.00
2018-01-17T10:20:16.229Z,3264.00
2018-01-17T10:21:22.410Z,3356.00
2018-01-17T10:22:28.273Z,3800.00
2018-01-17T10:23:34.295Z,3012.00
2018-01-17T10:24:40.326Z,2944.00
2018-01-17T10:25:46.363Z,2192.00
2018-01-17T10:26:52.435Z,2100.00
2018-01-17T10:27:58.448Z,2156.00
2018-01-17T10:29:04.488Z,2248.00
2018-01-17T10:30:10.533Z,2312.00
2018-01-17T10:31:16.569Z,2400.00
2018-01-17T10:32:22.645Z,2788.00
2018-01-17T10:33:29.156Z,2652.00
2018-01-17T10:34:35.224Z,2180.00
2018-01-17T10:35:40.744Z,2032.00
2018-01-17T10:36:47.313Z,1904.00
2018-01-17T10:37:52.823Z,1900.00
2018-01-17T10:38:58.877Z,1892.00
2018-01-17T10:40:05.449Z,1904.00
2018-01-17T10:41:10.966Z,1920.00
2018-01-17T10:42:17.026Z,1936.00
2018-01-17T10:43:23.064Z,1960.00
2018-01-17T10:44:29.131Z,2044.00
2018-01-17T10:45:35.625Z,2136.00
2018-01-17T10:46:41.169Z,2168.00
2018-01-17T10:47:47.235Z,2188.00
2018-01-17T10:48:53.277Z,2212.00
2018-01-17T10:49:59.296Z,2216.00
2018-01-17T10:51:05.852Z,2252.00
2018-01-17T10:52:11.406Z,2296.00
2018-01-17T10:53:17.439Z,2300.00
2018-01-17T10:54:23.485Z,2336.00
2018-01-17T10:55:30.025Z,2380.00
2018-01-17T10:56:35.576Z,2424.00
2018-01-17T10:57:41.697Z,2468.00
2018-01-17T10:58:47.678Z,2484.00
2018-01-17T10:59:53.743Z,2504.00
2018-01-17T11:00:59.781Z,2528.00
2018-01-17T11:02:05.836Z,2560.00
2018-01-17T11:03:11.914Z,2624.00
2018-01-17T11:04:17.942Z,2684.00
2018-01-17T11:05:23.992Z,2740.00
2018-01-17T11:06:30.042Z,2800.00
2018-01-17T11:07:36.133Z,2884.00
2018-01-17T11:08:42.186Z,3008.00
2018-01-17T11:09:48.241Z,3176.00
2018-01-17T11:10:54.322Z,3412.00
2018-01-17T11:12:00.369Z,3748.00
2018-01-17T11:13:06.454Z,4212.00
2018-01-17T11:14:12.493Z,4836.00
2018-01-17T11:15:18.577Z,5284.00
2018-01-17T11:16:24.627Z,5176.00
2018-01-17T11:17:30.712Z,3840.00
2018-01-17T11:18:36.795Z,2264.00
2018-01-17T11:19:42.846Z,1864.00
2018-01-17T11:20:48.925Z,1716.00
2018-01-17T11:21:54.994Z,1744.00
2018-01-17T11:23:01.102Z,1648.00
2018-01-17T11:24:07.141Z,1884.00
2018-01-17T11:25:13.218Z,2288.00
2018-01-17T11:26:20.284Z,2412.00
2018-01-17T11:27:25.365Z,1996.00
2018-01-17T11:28:31.451Z,1500.00
2018-01-17T11:29:37.493Z,1124.00
2018-01-17T11:30:43.569Z,888.00
2018-01-17T11:31:50.627Z,764.00
2018-01-17T11:32:55.684Z,884.00
2018-01-17T11:34:01.771Z,1188.00
2018-01-17T11:35:07.821Z,1860.00
2018-01-17T11:36:13.916Z,2712.00
2018-01-17T11:37:19.955Z,2952.00
2018-01-17T11:38:27.040Z,3064.00
2018-01-17T11:39:32.120Z,3424.00
2018-01-17T11:40:38.160Z,4132.00
2018-01-17T11:41:44.228Z,3272.00
2018-01-17T11:42:50.303Z,3200.00
2018-01-17T11:43:56.410Z,3124.00
2018-01-17T11:45:02.447Z,2284.00
2018-01-17T11:46:08.522Z,2336.00
2018-01-17T11:47:14.596Z,2596.00
2018-01-17T11:48:20.662Z,3268.00
2018-01-17T11:49:26.753Z,4180.00
2018-01-17T11:50:32.804Z,4960.00
2018-01-17T11:52:51.242Z,5888.00
2018-01-17T11:53:56.277Z,4744.00
2018-01-17T11:55:02.781Z,4712.00
2018-01-17T11:56:08.402Z,4576.00
2018-01-17T11:57:15.486Z,5132.00
2018-01-17T11:58:20.547Z,4252.00
2018-01-17T11:59:26.652Z,5532.00
2018-01-17T12:00:32.743Z,42400.00
2018-01-17T12:01:38.808Z,18784.00
2018-01-17T12:02:44.907Z,8556.00
2018-01-17T12:03:51.046Z,22336.00
2018-01-17T12:04:57.143Z,37568.00
2018-01-17T12:06:03.288Z,9488.00
2018-01-17T12:07:09.387Z,15912.00
2018-01-17T12:08:15.526Z,42624.00
2018-01-17T12:09:21.646Z,37632.00
2018-01-17T12:10:27.824Z,47552.00
2018-01-17T12:11:33.900Z,28832.00
2018-01-17T12:12:40.043Z,15800.00
2018-01-17T12:13:46.187Z,10752.00
2018-01-17T12:14:52.922Z,12716.00
2018-01-17T12:15:58.482Z,9664.00
2018-01-17T12:17:04.618Z,6088.00
2018-01-17T12:18:11.578Z,5812.00
2018-01-17T12:19:16.904Z,5996.00
2018-01-17T12:20:23.003Z,6480.00
2018-01-17T12:21:29.131Z,7048.00
2018-01-17T12:22:35.746Z,6968.00
2018-01-17T12:23:41.364Z,5476.00
2018-01-17T12:24:47.485Z,4416.00
2018-01-17T12:25:53.591Z,3308.00
2018-01-17T12:26:59.674Z,2728.00
2018-01-17T12:28:05.790Z,2564.00
2018-01-17T12:29:12.368Z,2492.00
2018-01-17T12:30:18.481Z,2448.00
2018-01-17T12:31:24.039Z,2736.00
2018-01-17T12:32:30.629Z,3128.00
2018-01-17T12:33:36.192Z,2240.00
2018-01-17T12:34:42.809Z,1724.00
2018-01-17T12:35:48.836Z,1948.00
2018-01-17T12:36:54.912Z,1824.00
2018-01-17T12:38:00.488Z,1676.00
2018-01-17T12:39:06.574Z,1788.00
2018-01-17T12:40:13.147Z,1528.00
2018-01-17T12:41:18.709Z,1800.00
2018-01-17T12:42:25.258Z,2328.00
2018-01-17T12:43:30.835Z,3424.00
2018-01-17T12:44:37.386Z,4152.00
2018-01-17T12:45:43.470Z,4064.00
2018-01-17T12:46:49.519Z,3656.00
2018-01-17T12:47:55.599Z,4564.00
2018-01-17T12:49:01.655Z,5488.00
2018-01-17T12:50:07.236Z,5252.00
2018-01-17T12:51:13.279Z,5196.00
2018-01-17T12:52:19.839Z,5896.00
2018-01-17T12:53:25.914Z,4816.00
2018-01-17T12:54:31.984Z,3736.00
2018-01-17T12:55:38.574Z,3140.00
2018-01-17T12:56:43.612Z,3380.00
2018-01-17T12:57:49.673Z,4452.00
2018-01-17T12:58:56.234Z,5252.00
2018-01-17T13:00:02.306Z,4976.00
2018-01-17T13:01:07.892Z,3960.00
2018-01-17T13:02:14.440Z,3264.00
2018-01-17T13:03:20.501Z,2552.00
2018-01-17T13:04:26.055Z,1968.00
2018-01-17T13:05:32.139Z,1772.00
2018-01-17T13:06:38.182Z,1864.00
2018-01-17T13:07:44.223Z,2328.00
2018-01-17T13:08:50.277Z,2916.00
2018-01-17T13:09:56.824Z,3828.00
2018-01-17T13:11:02.410Z,3664.00
2018-01-17T13:12:08.932Z,2688.00
2018-01-17T13:13:15.013Z,3480.00
2018-01-17T13:14:20.550Z,3520.00
2018-01-17T13:15:28.101Z,2916.00
2018-01-17T13:16:33.192Z,2700.00
2018-01-17T13:17:39.230Z,3160.00
2018-01-17T13:18:45.277Z,4284.00
2018-01-17T13:19:51.331Z,6668.00
2018-01-17T13:20:57.421Z,6068.00
2018-01-17T13:22:02.951Z,6180.00
2018-01-17T13:23:10.526Z,4772.00
2018-01-17T13:24:15.096Z,4332.00
2018-01-17T13:25:21.155Z,5032.00
2018-01-17T13:26:27.733Z,9336.00
2018-01-17T13:27:33.787Z,8500.00
2018-01-17T13:28:39.357Z,7992.00
2018-01-17T13:29:45.962Z,5600.00
2018-01-17T13:30:52.031Z,4744.00
2018-01-17T13:31:58.060Z,4212.00
2018-01-17T13:33:04.144Z,4400.00
2018-01-17T13:34:10.203Z,5876.00
2018-01-17T13:35:15.818Z,5496.00
2018-01-17T13:36:22.376Z,7824.00
2018-01-17T13:37:27.926Z,4504.00
2018-01-17T13:38:34.477Z,3616.00
2018-01-17T13:39:40.549Z,3424.00
2018-01-17T13:40:46.632Z,3448.00
2018-01-17T13:41:52.741Z,3476.00
2018-01-17T13:42:58.779Z,3072.00
2018-01-17T13:44:04.845Z,2568.00
2018-01-17T13:45:10.903Z,2496.00
2018-01-17T13:46:16.515Z,2140.00
2018-01-17T13:47:24.054Z,1688.00
2018-01-17T13:48:29.136Z,1608.00
2018-01-17T13:49:35.171Z,1472.00
2018-01-17T13:50:41.259Z,1328.00
2018-01-17T13:51:46.833Z,1440.00
2018-01-17T13:52:53.364Z,1308.00
2018-01-17T13:53:59.413Z,1392.00
2018-01-17T13:55:05.485Z,1632.00
2018-01-17T13:56:11.523Z,2304.00
2018-01-17T13:57:17.621Z,3288.00
2018-01-17T13:58:23.674Z,5236.00
2018-01-17T13:59:29.726Z,9520.00
2018-01-17T14:00:35.771Z,10424.00
2018-01-17T14:01:41.866Z,8624.00
2018-01-17T14:02:47.919Z,6984.00
2018-01-17T14:03:53.996Z,5108.00
2018-01-17T14:05:00.339Z,3924.00
2018-01-17T14:06:06.181Z,2576.00
2018-01-17T14:07:12.395Z,1624.00